Check out our new PWSWeather beta!
PWSweather.com
Personal Weather Stations
Station Observations
OZIERI
Punta Idda, OzieriIT

Punta IddaOzieriIT

Lat: 40.584142, Lon: 9.007657999999992

Elevation: 1483

Station Type: Lacrosse ws2350

Latest ConditionsUpdated 1:00:00 PM GMT+01:01 Thursday, Feb 27, 2020
Currently Today's Max Today's Min Today's Average
Temperature 50.7°F10.4°C 52.0°F11.1°C 40.8°F4.9°C 44.3°F6.8°C
Dew Point 37.8°F3.2°C 38.8°F3.8°C 26.8°F-2.9°C 32.2°F0.1°C
Winds 6.3 mph 10.1 kmh 8.7 mph -14.0 kmh - - 4.4 mph 7.1 kmh
Wind Gusts 12.1 mph19.5 kmh 16.8 mph27.0 kmh - -
Humidity 61% 74% 50% 62%
Pressure 30.02 in1016.6 mb 30.05 in1017.6 mb 29.96 in1014.6 mb -
Hour Temp Dew Point Humidity Winds Wind Gusts Pressure Precip Precip Rate Daily Precip Total
01:00 PM 50.7°F10.4°C 37.8°F3.2°C 61% 6.3 mph 10.1 kmh 12.1 mph19.5 kmh 30.02 in1016.6 mb 0.00 in0.0 mm 0.00 in0.0 mm 0.00 in0.0 mm
12:57 PM 50.5°F10.3°C 37.9°F3.3°C 62% 5.8 mph WNW9.3 kmh WNW 9.2 mph14.8 kmh 30.02 in1016.6 mb 0.00 in0.0 mm 0.00 in0.0 mm 0.00 in0.0 mm
12:55 PM 50.5°F10.3°C 37.9°F3.3°C 62% 6.5 mph NNW10.5 kmh NNW 8.5 mph13.7 kmh 30.02 in1016.6 mb 0.00 in0.0 mm 0.00 in0.0 mm 0.00 in0.0 mm
12:53 PM 50.5°F10.3°C 37.9°F3.3°C 62% 7.4 mph NNW11.9 kmh NNW 11.9 mph19.2 kmh 30.03 in1016.9 mb 0.00 in0.0 mm 0.00 in0.0 mm 0.00 in0.0 mm
12:51 PM 50.5°F10.3°C 37.9°F3.3°C 62% 6.7 mph WSW10.8 kmh WSW 10.5 mph16.9 kmh 30.02 in1016.6 mb 0.00 in0.0 mm 0.00 in0.0 mm 0.00 in0.0 mm
12:48 PM 50.7°F10.4°C 38.1°F3.4°C 62% 4.5 mph 7.2 kmh 7.6 mph12.2 kmh 30.03 in1016.9 mb 0.00 in0.0 mm 0.00 in0.0 mm 0.00 in0.0 mm
12:46 PM 50.7°F10.4°C 38.1°F3.4°C 62% 4.9 mph NNW7.9 kmh NNW 6.0 mph9.7 kmh 30.02 in1016.6 mb 0.00 in0.0 mm 0.00 in0.0 mm 0.00 in0.0 mm
12:44 PM 50.7°F10.4°C 38.1°F3.4°C 62% 5.8 mph WNW9.3 kmh WNW 10.1 mph16.3 kmh 30.03 in1016.9 mb 0.00 in0.0 mm 0.00 in0.0 mm 0.00 in0.0 mm
12:42 PM 50.9°F10.5°C 38.3°F3.5°C 62% 5.6 mph ESE9.0 kmh ESE 8.5 mph13.7 kmh 30.03 in1016.9 mb 0.00 in0.0 mm 0.00 in0.0 mm 0.00 in0.0 mm
12:40 PM 51.1°F10.6°C 38.1°F3.4°C 61% 6.3 mph 10.1 kmh 15.2 mph24.5 kmh 30.03 in1016.9 mb 0.00 in0.0 mm 0.00 in0.0 mm 0.00 in0.0 mm
12:37 PM 51.4°F10.8°C 38.5°F3.6°C 61% 5.6 mph NW9.0 kmh NW 10.1 mph16.3 kmh 30.03 in1016.9 mb 0.00 in0.0 mm 0.00 in0.0 mm 0.00 in0.0 mm
12:35 PM 51.6°F10.9°C 38.7°F3.7°C 61% 4.9 mph NW7.9 kmh NW 7.8 mph12.6 kmh 30.03 in1016.9 mb 0.00 in0.0 mm 0.00 in0.0 mm 0.00 in0.0 mm
12:33 PM 51.6°F10.9°C 38.7°F3.7°C 61% 4.7 mph WNW7.6 kmh WNW 5.1 mph8.2 kmh 30.03 in1016.9 mb 0.00 in0.0 mm 0.00 in0.0 mm 0.00 in0.0 mm
12:31 PM 51.6°F10.9°C 38.7°F3.7°C 61% 4.9 mph NW7.9 kmh NW 6.5 mph10.5 kmh 30.03 in1016.9 mb 0.00 in0.0 mm 0.00 in0.0 mm 0.00 in0.0 mm
12:29 PM 51.6°F10.9°C 38.1°F3.4°C 60% 5.6 mph NW9.0 kmh NW 13.0 mph20.9 kmh 30.03 in1016.9 mb 0.00 in0.0 mm 0.00 in0.0 mm 0.00 in0.0 mm
12:27 PM 52.0°F11.1°C 38.5°F3.6°C 60% 4.7 mph 7.6 kmh 7.6 mph12.2 kmh 30.03 in1016.9 mb 0.00 in0.0 mm 0.00 in0.0 mm 0.00 in0.0 mm
12:25 PM 51.8°F11.0°C 38.3°F3.5°C 60% 5.4 mph 8.7 kmh 10.1 mph16.3 kmh 30.03 in1016.9 mb 0.00 in0.0 mm 0.00 in0.0 mm 0.00 in0.0 mm
12:22 PM 51.6°F10.9°C 38.7°F3.7°C 61% 4.3 mph WNW6.9 kmh WNW 9.2 mph14.8 kmh 30.03 in1016.9 mb 0.00 in0.0 mm 0.00 in0.0 mm 0.00 in0.0 mm
12:20 PM 51.4°F10.8°C 38.8°F3.8°C 62% 4.7 mph SE7.6 kmh SE 7.4 mph11.9 kmh 30.03 in1016.9 mb 0.00 in0.0 mm 0.00 in0.0 mm 0.00 in0.0 mm
12:18 PM 50.9°F10.5°C 38.3°F3.5°C 62% 6.3 mph NW10.1 kmh NW 11.2 mph18.0 kmh 30.03 in1016.9 mb 0.00 in0.0 mm 0.00 in0.0 mm 0.00 in0.0 mm
12:15 PM 50.5°F10.3°C 37.9°F3.3°C 62% 6.7 mph WNW10.8 kmh WNW 11.0 mph17.7 kmh 30.03 in1016.9 mb 0.00 in0.0 mm 0.00 in0.0 mm 0.00 in0.0 mm
12:13 PM 50.5°F10.3°C 38.5°F3.6°C 63% 7.2 mph WNW11.6 kmh WNW 14.1 mph22.7 kmh 30.03 in1016.9 mb 0.00 in0.0 mm 0.00 in0.0 mm 0.00 in0.0 mm
12:11 PM 50.2°F10.1°C 38.1°F3.4°C 63% 6.5 mph WSW10.5 kmh WSW 11.4 mph18.3 kmh 30.03 in1016.9 mb 0.00 in0.0 mm 0.00 in0.0 mm 0.00 in0.0 mm
12:09 PM 50.2°F10.1°C 38.1°F3.4°C 63% 4.9 mph 7.9 kmh 10.5 mph16.9 kmh 30.03 in1016.9 mb 0.00 in0.0 mm 0.00 in0.0 mm 0.00 in0.0 mm
12:07 PM 50.2°F10.1°C 37.6°F3.1°C 62% 4.9 mph WSW7.9 kmh WSW 8.9 mph14.3 kmh 30.03 in1016.9 mb 0.00 in0.0 mm 0.00 in0.0 mm 0.00 in0.0 mm
12:04 PM 50.2°F10.1°C 37.6°F3.1°C 62% 4.7 mph NW7.6 kmh NW 11.0 mph17.7 kmh 30.03 in1016.9 mb 0.00 in0.0 mm 0.00 in0.0 mm 0.00 in0.0 mm
12:02 PM 50.2°F10.1°C 37.6°F3.1°C 62% 4.9 mph WSW7.9 kmh WSW 11.9 mph19.2 kmh 30.03 in1016.9 mb 0.00 in0.0 mm 0.00 in0.0 mm 0.00 in0.0 mm
12:00 PM 50.0°F10.0°C 37.6°F3.1°C 62% 5.1 mph NNW8.2 kmh NNW 7.4 mph11.9 kmh 30.03 in1016.9 mb 0.00 in0.0 mm 0.00 in0.0 mm 0.00 in0.0 mm
11:58 AM 50.2°F10.1°C 37.2°F2.9°C 61% 5.8 mph WNW9.3 kmh WNW 10.5 mph16.9 kmh 30.03 in1016.9 mb 0.00 in0.0 mm 0.00 in0.0 mm 0.00 in0.0 mm
11:56 AM 50.2°F10.1°C 37.6°F3.1°C 62% 4.7 mph 7.6 kmh 8.3 mph13.4 kmh 30.04 in1017.3 mb 0.00 in0.0 mm 0.00 in0.0 mm 0.00 in0.0 mm
11:54 AM 50.2°F10.1°C 37.6°F3.1°C 62% 4.5 mph W7.2 kmh W 5.1 mph8.2 kmh 30.04 in1017.3 mb 0.00 in0.0 mm 0.00 in0.0 mm 0.00 in0.0 mm
11:52 AM 49.8°F9.9°C 37.4°F3.0°C 62% 5.6 mph NW9.0 kmh NW 7.8 mph12.6 kmh 30.04 in1017.3 mb 0.00 in0.0 mm 0.00 in0.0 mm 0.00 in0.0 mm
11:49 AM 49.8°F9.9°C 37.4°F3.0°C 62% 6.0 mph 9.7 kmh 8.1 mph13.0 kmh 30.04 in1017.3 mb 0.00 in0.0 mm 0.00 in0.0 mm 0.00 in0.0 mm
11:47 AM 49.8°F9.9°C 36.9°F2.7°C 61% 6.7 mph NW10.8 kmh NW 8.7 mph14.0 kmh 30.03 in1016.9 mb 0.00 in0.0 mm 0.00 in0.0 mm 0.00 in0.0 mm
11:45 AM 49.8°F9.9°C 36.9°F2.7°C 61% 7.6 mph NNW12.2 kmh NNW 10.3 mph16.6 kmh 30.04 in1017.3 mb 0.00 in0.0 mm 0.00 in0.0 mm 0.00 in0.0 mm
11:43 AM 50.2°F10.1°C 37.2°F2.9°C 61% 6.7 mph NW10.8 kmh NW 11.6 mph18.7 kmh 30.04 in1017.3 mb 0.00 in0.0 mm 0.00 in0.0 mm 0.00 in0.0 mm
11:40 AM 50.2°F10.1°C 37.2°F2.9°C 61% 6.3 mph W10.1 kmh W 11.6 mph18.7 kmh 30.04 in1017.3 mb 0.00 in0.0 mm 0.00 in0.0 mm 0.00 in0.0 mm
11:38 AM 50.2°F10.1°C 37.2°F2.9°C 61% 5.8 mph W9.3 kmh W 7.6 mph12.2 kmh 30.04 in1017.3 mb 0.00 in0.0 mm 0.00 in0.0 mm 0.00 in0.0 mm
11:36 AM 50.2°F10.1°C 37.2°F2.9°C 61% 6.9 mph NW11.1 kmh NW 16.3 mph26.2 kmh 30.04 in1017.3 mb 0.00 in0.0 mm 0.00 in0.0 mm 0.00 in0.0 mm
11:34 AM 50.5°F10.3°C 37.6°F3.1°C 61% 5.8 mph NNE9.3 kmh NNE 7.4 mph11.9 kmh 30.03 in1016.9 mb 0.00 in0.0 mm 0.00 in0.0 mm 0.00 in0.0 mm
11:31 AM 50.4°F10.2°C 37.4°F3.0°C 61% 5.6 mph NNW9.0 kmh NNW 8.1 mph13.0 kmh 30.04 in1017.3 mb 0.00 in0.0 mm 0.00 in0.0 mm 0.00 in0.0 mm
11:29 AM 50.2°F10.1°C 37.2°F2.9°C 61% 5.8 mph WNW9.3 kmh WNW 7.6 mph12.2 kmh 30.04 in1017.3 mb 0.00 in0.0 mm 0.00 in0.0 mm 0.00 in0.0 mm
11:27 AM 49.8°F9.9°C 36.9°F2.7°C 61% 6.0 mph W9.7 kmh W 7.6 mph12.2 kmh 30.03 in1016.9 mb 0.00 in0.0 mm 0.00 in0.0 mm 0.00 in0.0 mm
11:25 AM 49.8°F9.9°C 36.9°F2.7°C 61% 7.2 mph WSW11.6 kmh WSW 9.4 mph15.1 kmh 30.03 in1016.9 mb 0.00 in0.0 mm 0.00 in0.0 mm 0.00 in0.0 mm
11:23 AM 49.8°F9.9°C 36.9°F2.7°C 61% 6.9 mph W11.1 kmh W 10.7 mph17.2 kmh 30.03 in1016.9 mb 0.00 in0.0 mm 0.00 in0.0 mm 0.00 in0.0 mm
11:20 AM 49.6°F9.8°C 36.7°F2.6°C 61% 6.9 mph NW11.1 kmh NW 9.8 mph15.8 kmh 30.03 in1016.9 mb 0.00 in0.0 mm 0.00 in0.0 mm 0.00 in0.0 mm
11:18 AM 49.6°F9.8°C 36.7°F2.6°C 61% 6.5 mph NNW10.5 kmh NNW 12.3 mph19.8 kmh 30.03 in1016.9 mb 0.00 in0.0 mm 0.00 in0.0 mm 0.00 in0.0 mm
11:16 AM 49.8°F9.9°C 36.9°F2.7°C 61% 5.6 mph NNW9.0 kmh NNW 7.4 mph11.9 kmh 30.03 in1016.9 mb 0.00 in0.0 mm 0.00 in0.0 mm 0.00 in0.0 mm
11:14 AM 49.8°F9.9°C 36.9°F2.7°C 61% 6.9 mph WSW11.1 kmh WSW 7.8 mph12.6 kmh 30.03 in1016.9 mb 0.00 in0.0 mm 0.00 in0.0 mm 0.00 in0.0 mm
11:12 AM 49.8°F9.9°C 36.9°F2.7°C 61% 7.8 mph 12.6 kmh 10.7 mph17.2 kmh 30.03 in1016.9 mb 0.00 in0.0 mm 0.00 in0.0 mm 0.00 in0.0 mm
11:10 AM 49.8°F9.9°C 36.9°F2.7°C 61% 6.7 mph W10.8 kmh W 8.9 mph14.3 kmh 30.03 in1016.9 mb 0.00 in0.0 mm 0.00 in0.0 mm 0.00 in0.0 mm
11:07 AM 50.0°F10.0°C 37.0°F2.8°C 61% 7.6 mph WSW12.2 kmh WSW 11.2 mph18.0 kmh 30.02 in1016.6 mb 0.00 in0.0 mm 0.00 in0.0 mm 0.00 in0.0 mm
11:05 AM 49.8°F9.9°C 36.9°F2.7°C 61% 6.5 mph NW10.5 kmh NW 9.4 mph15.1 kmh 30.03 in1016.9 mb 0.00 in0.0 mm 0.00 in0.0 mm 0.00 in0.0 mm
11:03 AM 49.8°F9.9°C 36.9°F2.7°C 61% 7.6 mph W12.2 kmh W 14.8 mph23.8 kmh 30.02 in1016.6 mb 0.00 in0.0 mm 0.00 in0.0 mm 0.00 in0.0 mm
11:01 AM 49.8°F9.9°C 37.4°F3.0°C 62% 6.5 mph NW10.5 kmh NW 9.8 mph15.8 kmh 30.03 in1016.9 mb 0.00 in0.0 mm 0.00 in0.0 mm 0.00 in0.0 mm
10:59 AM 49.6°F9.8°C 37.2°F2.9°C 62% 6.7 mph SW10.8 kmh SW 10.3 mph16.6 kmh 30.02 in1016.6 mb 0.00 in0.0 mm 0.00 in0.0 mm 0.00 in0.0 mm
10:57 AM 49.6°F9.8°C 37.2°F2.9°C 62% 7.2 mph NNE11.6 kmh NNE 14.3 mph23.0 kmh 30.03 in1016.9 mb 0.00 in0.0 mm 0.00 in0.0 mm 0.00 in0.0 mm
10:54 AM 49.8°F9.9°C 37.8°F3.2°C 63% 7.4 mph WNW11.9 kmh WNW 12.1 mph19.5 kmh 30.02 in1016.6 mb 0.00 in0.0 mm 0.00 in0.0 mm 0.00 in0.0 mm
10:52 AM 49.6°F9.8°C 37.9°F3.3°C 64% 5.8 mph NW9.3 kmh NW 9.2 mph14.8 kmh 30.02 in1016.6 mb 0.00 in0.0 mm 0.00 in0.0 mm 0.00 in0.0 mm
10:50 AM 49.3°F9.6°C 37.6°F3.1°C 64% 7.2 mph NW11.6 kmh NW 10.5 mph16.9 kmh 30.02 in1016.6 mb 0.00 in0.0 mm 0.00 in0.0 mm 0.00 in0.0 mm
10:48 AM 49.6°F9.8°C 37.9°F3.3°C 64% 6.5 mph NW10.5 kmh NW 8.5 mph13.7 kmh 30.02 in1016.6 mb 0.00 in0.0 mm 0.00 in0.0 mm 0.00 in0.0 mm
10:46 AM 49.3°F9.6°C 37.6°F3.1°C 64% 6.7 mph NNW10.8 kmh NNW 11.2 mph18.0 kmh 30.03 in1016.9 mb 0.00 in0.0 mm 0.00 in0.0 mm 0.00 in0.0 mm
10:44 AM 49.1°F9.5°C 37.8°F3.2°C 65% 7.4 mph WSW11.9 kmh WSW 13.4 mph21.6 kmh 30.03 in1016.9 mb 0.00 in0.0 mm 0.00 in0.0 mm 0.00 in0.0 mm
10:41 AM 48.9°F9.4°C 37.8°F3.2°C 65% 6.3 mph NW10.1 kmh NW 11.0 mph17.7 kmh 30.03 in1016.9 mb 0.00 in0.0 mm 0.00 in0.0 mm 0.00 in0.0 mm
10:39 AM 48.9°F9.4°C 38.1°F3.4°C 66% 5.8 mph 9.3 kmh 8.5 mph13.7 kmh 30.03 in1016.9 mb 0.00 in0.0 mm 0.00 in0.0 mm 0.00 in0.0 mm
10:37 AM 48.9°F9.4°C 38.5°F3.6°C 67% 5.4 mph 8.7 kmh 7.6 mph12.2 kmh 30.04 in1017.3 mb 0.00 in0.0 mm 0.00 in0.0 mm 0.00 in0.0 mm
10:35 AM 48.7°F9.3°C 38.3°F3.5°C 67% 4.5 mph NW7.2 kmh NW 6.9 mph11.1 kmh 30.04 in1017.3 mb 0.00 in0.0 mm 0.00 in0.0 mm 0.00 in0.0 mm
10:33 AM 48.6°F9.2°C 37.8°F3.2°C 66% 4.5 mph W7.2 kmh W 8.7 mph14.0 kmh 30.04 in1017.3 mb 0.00 in0.0 mm 0.00 in0.0 mm 0.00 in0.0 mm
10:31 AM 48.6°F9.2°C 38.1°F3.4°C 67% 4.7 mph W7.6 kmh W 4.7 mph7.6 kmh 30.05 in1017.6 mb 0.00 in0.0 mm 0.00 in0.0 mm 0.00 in0.0 mm
10:29 AM 48.6°F9.2°C 37.8°F3.2°C 66% 5.4 mph NW8.7 kmh NW 11.2 mph18.0 kmh 30.05 in1017.6 mb 0.00 in0.0 mm 0.00 in0.0 mm 0.00 in0.0 mm
10:26 AM 48.6°F9.2°C 38.1°F3.4°C 67% 4.7 mph 7.6 kmh 10.5 mph16.9 kmh 30.05 in1017.6 mb 0.00 in0.0 mm 0.00 in0.0 mm 0.00 in0.0 mm
10:24 AM 48.4°F9.1°C 37.6°F3.1°C 66% 4.3 mph SW6.9 kmh SW 6.0 mph9.7 kmh 30.05 in1017.6 mb 0.00 in0.0 mm 0.00 in0.0 mm 0.00 in0.0 mm
10:22 AM 48.4°F9.1°C 37.9°F3.3°C 67% 5.1 mph W8.2 kmh W 9.6 mph15.4 kmh 30.05 in1017.6 mb 0.00 in0.0 mm 0.00 in0.0 mm 0.00 in0.0 mm
10:20 AM 48.6°F9.2°C 38.1°F3.4°C 67% 5.1 mph NW8.2 kmh NW 9.6 mph15.4 kmh 30.05 in1017.6 mb 0.00 in0.0 mm 0.00 in0.0 mm 0.00 in0.0 mm
10:18 AM 48.6°F9.2°C 38.1°F3.4°C 67% 5.4 mph WSW8.7 kmh WSW 8.1 mph13.0 kmh 30.05 in1017.6 mb 0.00 in0.0 mm 0.00 in0.0 mm 0.00 in0.0 mm
10:16 AM 48.4°F9.1°C 37.9°F3.3°C 67% 5.4 mph NNW8.7 kmh NNW 8.1 mph13.0 kmh 30.04 in1017.3 mb 0.00 in0.0 mm 0.00 in0.0 mm 0.00 in0.0 mm
10:14 AM 48.4°F9.1°C 37.9°F3.3°C 67% 6.0 mph W9.7 kmh W 13.2 mph21.2 kmh 30.04 in1017.3 mb 0.00 in0.0 mm 0.00 in0.0 mm 0.00 in0.0 mm
10:12 AM 48.4°F9.1°C 37.9°F3.3°C 67% 4.9 mph WNW7.9 kmh WNW 8.9 mph14.3 kmh 30.04 in1017.3 mb 0.00 in0.0 mm 0.00 in0.0 mm 0.00 in0.0 mm
10:09 AM 48.2°F9.0°C 38.1°F3.4°C 68% 4.3 mph S6.9 kmh S 7.4 mph11.9 kmh 30.04 in1017.3 mb 0.00 in0.0 mm 0.00 in0.0 mm 0.00 in0.0 mm
10:07 AM 48.0°F8.9°C 37.9°F3.3°C 68% 4.9 mph WSW7.9 kmh WSW 8.7 mph14.0 kmh 30.04 in1017.3 mb 0.00 in0.0 mm 0.00 in0.0 mm 0.00 in0.0 mm
10:05 AM 48.0°F8.9°C 38.3°F3.5°C 69% 5.6 mph WSW9.0 kmh WSW 10.5 mph16.9 kmh 30.05 in1017.6 mb 0.00 in0.0 mm 0.00 in0.0 mm 0.00 in0.0 mm
10:03 AM 47.8°F8.8°C 38.1°F3.4°C 69% 6.0 mph NNW9.7 kmh NNW 8.3 mph13.4 kmh 30.04 in1017.3 mb 0.00 in0.0 mm 0.00 in0.0 mm 0.00 in0.0 mm
10:01 AM 47.8°F8.8°C 38.1°F3.4°C 69% 6.0 mph WNW9.7 kmh WNW 8.3 mph13.4 kmh 30.04 in1017.3 mb 0.00 in0.0 mm 0.00 in0.0 mm 0.00 in0.0 mm
09:58 AM 47.7°F8.7°C 37.9°F3.3°C 69% 5.6 mph WNW9.0 kmh WNW 8.1 mph13.0 kmh 30.04 in1017.3 mb 0.00 in0.0 mm 0.00 in0.0 mm 0.00 in0.0 mm
09:56 AM 47.8°F8.8°C 38.5°F3.6°C 70% 5.4 mph WNW8.7 kmh WNW 9.6 mph15.4 kmh 30.04 in1017.3 mb 0.00 in0.0 mm 0.00 in0.0 mm 0.00 in0.0 mm
09:54 AM 47.5°F8.6°C 38.5°F3.6°C 71% 3.6 mph WNW5.8 kmh WNW 5.1 mph8.2 kmh 30.04 in1017.3 mb 0.00 in0.0 mm 0.00 in0.0 mm 0.00 in0.0 mm
09:52 AM 47.1°F8.4°C 38.5°F3.6°C 72% 3.1 mph NNW5.0 kmh NNW 4.0 mph6.4 kmh 30.04 in1017.3 mb 0.00 in0.0 mm 0.00 in0.0 mm 0.00 in0.0 mm
09:50 AM 47.1°F8.4°C 38.5°F3.6°C 72% 3.8 mph NW6.1 kmh NW 6.0 mph9.7 kmh 30.04 in1017.3 mb 0.00 in0.0 mm 0.00 in0.0 mm 0.00 in0.0 mm
09:47 AM 46.8°F8.2°C 38.3°F3.5°C 72% 4.5 mph NNW7.2 kmh NNW 6.0 mph9.7 kmh 30.04 in1017.3 mb 0.00 in0.0 mm 0.00 in0.0 mm 0.00 in0.0 mm
09:45 AM 46.6°F8.1°C 38.1°F3.4°C 72% 4.9 mph W7.9 kmh W 9.2 mph14.8 kmh 30.04 in1017.3 mb 0.00 in0.0 mm 0.00 in0.0 mm 0.00 in0.0 mm
09:43 AM 46.2°F7.9°C 37.8°F3.2°C 72% 4.0 mph WNW6.4 kmh WNW 7.8 mph12.6 kmh 30.04 in1017.3 mb 0.00 in0.0 mm 0.00 in0.0 mm 0.00 in0.0 mm
09:41 AM 46.2°F7.9°C 37.8°F3.2°C 72% 3.8 mph NNW6.1 kmh NNW 7.6 mph12.2 kmh 30.04 in1017.3 mb 0.00 in0.0 mm 0.00 in0.0 mm 0.00 in0.0 mm
09:39 AM 46.0°F7.8°C 37.6°F3.1°C 72% 3.4 mph 5.5 kmh 5.6 mph9.0 kmh 30.04 in1017.3 mb 0.00 in0.0 mm 0.00 in0.0 mm 0.00 in0.0 mm
09:36 AM 46.0°F7.8°C 37.6°F3.1°C 72% 3.4 mph NW5.5 kmh NW 8.3 mph13.4 kmh 30.04 in1017.3 mb 0.00 in0.0 mm 0.00 in0.0 mm 0.00 in0.0 mm
09:34 AM 46.0°F7.8°C 37.6°F3.1°C 72% 2.9 mph NE4.7 kmh NE 5.1 mph8.2 kmh 30.04 in1017.3 mb 0.00 in0.0 mm 0.00 in0.0 mm 0.00 in0.0 mm
09:32 AM 45.9°F7.7°C 37.4°F3.0°C 72% 3.4 mph 5.5 kmh 7.8 mph12.6 kmh 30.04 in1017.3 mb 0.00 in0.0 mm 0.00 in0.0 mm 0.00 in0.0 mm
09:29 AM 45.7°F7.6°C 37.2°F2.9°C 72% 3.4 mph 5.5 kmh 10.5 mph16.9 kmh 30.04 in1017.3 mb 0.00 in0.0 mm 0.00 in0.0 mm 0.00 in0.0 mm
09:27 AM 45.7°F7.6°C 37.2°F2.9°C 72% 3.8 mph WNW6.1 kmh WNW 4.0 mph6.4 kmh 30.04 in1017.3 mb 0.00 in0.0 mm 0.00 in0.0 mm 0.00 in0.0 mm
09:25 AM 45.7°F7.6°C 36.9°F2.7°C 71% 5.6 mph NW9.0 kmh NW 7.2 mph11.6 kmh 30.03 in1016.9 mb 0.00 in0.0 mm 0.00 in0.0 mm 0.00 in0.0 mm
09:23 AM 45.7°F7.6°C 36.9°F2.7°C 71% 6.3 mph WSW10.1 kmh WSW 12.5 mph20.1 kmh 30.03 in1016.9 mb 0.00 in0.0 mm 0.00 in0.0 mm 0.00 in0.0 mm
09:21 AM 45.7°F7.6°C 37.2°F2.9°C 72% 4.5 mph NW7.2 kmh NW 8.9 mph14.3 kmh 30.04 in1017.3 mb 0.00 in0.0 mm 0.00 in0.0 mm 0.00 in0.0 mm
09:19 AM 45.7°F7.6°C 37.2°F2.9°C 72% 3.6 mph WSW5.8 kmh WSW 7.6 mph12.2 kmh 30.04 in1017.3 mb 0.00 in0.0 mm 0.00 in0.0 mm 0.00 in0.0 mm
09:17 AM 45.7°F7.6°C 37.2°F2.9°C 72% 3.4 mph W5.5 kmh W 5.6 mph9.0 kmh 30.04 in1017.3 mb 0.00 in0.0 mm 0.00 in0.0 mm 0.00 in0.0 mm
09:15 AM 45.7°F7.6°C 37.6°F3.1°C 73% 2.7 mph WNW4.3 kmh WNW 4.7 mph7.6 kmh 30.04 in1017.3 mb 0.00 in0.0 mm 0.00 in0.0 mm 0.00 in0.0 mm
09:13 AM 45.3°F7.4°C 37.2°F2.9°C 73% 2.7 mph 4.3 kmh 5.4 mph8.7 kmh 30.04 in1017.3 mb 0.00 in0.0 mm 0.00 in0.0 mm 0.00 in0.0 mm
09:11 AM 45.1°F7.3°C 37.0°F2.8°C 73% 2.7 mph NNW4.3 kmh NNW 4.7 mph7.6 kmh 30.04 in1017.3 mb 0.00 in0.0 mm 0.00 in0.0 mm 0.00 in0.0 mm
09:08 AM 45.0°F7.2°C 36.9°F2.7°C 73% 3.1 mph W5.0 kmh W 3.8 mph6.1 kmh 30.03 in1016.9 mb 0.00 in0.0 mm 0.00 in0.0 mm 0.00 in0.0 mm
09:06 AM 44.8°F7.1°C 36.7°F2.6°C 73% 3.6 mph NW5.8 kmh NW 8.1 mph13.0 kmh 30.03 in1016.9 mb 0.00 in0.0 mm 0.00 in0.0 mm 0.00 in0.0 mm
09:04 AM 44.4°F6.9°C 36.7°F2.6°C 74% 2.5 mph W4.0 kmh W 5.1 mph8.2 kmh 30.03 in1016.9 mb 0.00 in0.0 mm 0.00 in0.0 mm 0.00 in0.0 mm
09:02 AM 44.4°F6.9°C 36.7°F2.6°C 74% 2.0 mph SSE3.2 kmh SSE 6.5 mph10.5 kmh 30.03 in1016.9 mb 0.00 in0.0 mm 0.00 in0.0 mm 0.00 in0.0 mm
09:00 AM 44.1°F6.7°C 36.3°F2.4°C 74% 2.5 mph 4.0 kmh 2.2 mph3.5 kmh 30.03 in1016.9 mb 0.00 in0.0 mm 0.00 in0.0 mm 0.00 in0.0 mm
08:57 AM 43.7°F6.5°C 36.0°F2.2°C 74% 3.1 mph SW5.0 kmh SW 4.7 mph7.6 kmh 30.03 in1016.9 mb 0.00 in0.0 mm 0.00 in0.0 mm 0.00 in0.0 mm
08:55 AM 43.5°F6.4°C 35.8°F2.1°C 74% 4.0 mph SSW6.4 kmh SSW 7.2 mph11.6 kmh 30.03 in1016.9 mb 0.00 in0.0 mm 0.00 in0.0 mm 0.00 in0.0 mm
08:53 AM 43.5°F6.4°C 35.8°F2.1°C 74% 4.3 mph W6.9 kmh W 6.9 mph11.1 kmh 30.03 in1016.9 mb 0.00 in0.0 mm 0.00 in0.0 mm 0.00 in0.0 mm
08:51 AM 43.3°F6.3°C 35.6°F2.0°C 74% 3.6 mph W5.8 kmh W 10.3 mph16.6 kmh 30.02 in1016.6 mb 0.00 in0.0 mm 0.00 in0.0 mm 0.00 in0.0 mm
08:49 AM 43.3°F6.3°C 35.6°F2.0°C 74% 2.9 mph W4.7 kmh W 4.9 mph7.9 kmh 30.02 in1016.6 mb 0.00 in0.0 mm 0.00 in0.0 mm 0.00 in0.0 mm
08:46 AM 43.0°F6.1°C 35.2°F1.8°C 74% 2.9 mph WSW4.7 kmh WSW 3.6 mph5.8 kmh 30.03 in1016.9 mb 0.00 in0.0 mm 0.00 in0.0 mm 0.00 in0.0 mm
08:44 AM 43.0°F6.1°C 34.9°F1.6°C 73% 3.1 mph NW5.0 kmh NW 7.2 mph11.6 kmh 30.03 in1016.9 mb 0.00 in0.0 mm 0.00 in0.0 mm 0.00 in0.0 mm
08:42 AM 42.6°F5.9°C 34.5°F1.4°C 73% 2.7 mph WNW4.3 kmh WNW 3.8 mph6.1 kmh 30.03 in1016.9 mb 0.00 in0.0 mm 0.00 in0.0 mm 0.00 in0.0 mm
08:40 AM 42.6°F5.9°C 34.5°F1.4°C 73% 3.6 mph NNW5.8 kmh NNW 6.0 mph9.7 kmh 30.03 in1016.9 mb 0.00 in0.0 mm 0.00 in0.0 mm 0.00 in0.0 mm
08:38 AM 42.6°F5.9°C 34.5°F1.4°C 73% 2.9 mph WSW4.7 kmh WSW 5.1 mph8.2 kmh 30.03 in1016.9 mb 0.00 in0.0 mm 0.00 in0.0 mm 0.00 in0.0 mm
08:35 AM 42.6°F5.9°C 34.2°F1.2°C 72% 2.5 mph WNW4.0 kmh WNW 6.3 mph10.1 kmh 30.03 in1016.9 mb 0.00 in0.0 mm 0.00 in0.0 mm 0.00 in0.0 mm
08:33 AM 42.6°F5.9°C 34.2°F1.2°C 72% 1.8 mph NW2.9 kmh NW 2.5 mph4.0 kmh 30.02 in1016.6 mb 0.00 in0.0 mm 0.00 in0.0 mm 0.00 in0.0 mm
08:31 AM 42.6°F5.9°C 34.2°F1.2°C 72% 2.7 mph W4.3 kmh W 2.9 mph4.7 kmh 30.02 in1016.6 mb 0.00 in0.0 mm 0.00 in0.0 mm 0.00 in0.0 mm
08:29 AM 42.6°F5.9°C 34.2°F1.2°C 72% 3.4 mph NNW5.5 kmh NNW 6.0 mph9.7 kmh 30.02 in1016.6 mb 0.00 in0.0 mm 0.00 in0.0 mm 0.00 in0.0 mm
08:27 AM 42.6°F5.9°C 34.2°F1.2°C 72% 3.6 mph SW5.8 kmh SW 6.3 mph10.1 kmh 30.02 in1016.6 mb 0.00 in0.0 mm 0.00 in0.0 mm 0.00 in0.0 mm
08:25 AM 42.6°F5.9°C 34.2°F1.2°C 72% 3.4 mph W5.5 kmh W 4.7 mph7.6 kmh 30.02 in1016.6 mb 0.00 in0.0 mm 0.00 in0.0 mm 0.00 in0.0 mm
08:23 AM 42.6°F5.9°C 34.2°F1.2°C 72% 3.4 mph W5.5 kmh W 5.4 mph8.7 kmh 30.02 in1016.6 mb 0.00 in0.0 mm 0.00 in0.0 mm 0.00 in0.0 mm
08:20 AM 42.6°F5.9°C 34.2°F1.2°C 72% 3.4 mph W5.5 kmh W 6.0 mph9.7 kmh 30.02 in1016.6 mb 0.00 in0.0 mm 0.00 in0.0 mm 0.00 in0.0 mm
08:18 AM 42.6°F5.9°C 34.2°F1.2°C 72% 2.2 mph WNW3.5 kmh WNW 2.7 mph4.3 kmh 30.02 in1016.6 mb 0.00 in0.0 mm 0.00 in0.0 mm 0.00 in0.0 mm
08:16 AM 42.4°F5.8°C 34.0°F1.1°C 72% 2.7 mph WSW4.3 kmh WSW 3.8 mph6.1 kmh 30.02 in1016.6 mb 0.00 in0.0 mm 0.00 in0.0 mm 0.00 in0.0 mm
08:14 AM 42.4°F5.8°C 34.0°F1.1°C 72% 2.7 mph SSW4.3 kmh SSW 4.7 mph7.6 kmh 30.02 in1016.6 mb 0.00 in0.0 mm 0.00 in0.0 mm 0.00 in0.0 mm
08:12 AM 42.4°F5.8°C 33.6°F0.9°C 71% 3.1 mph W5.0 kmh W 4.5 mph7.2 kmh 30.03 in1016.9 mb 0.00 in0.0 mm 0.00 in0.0 mm 0.00 in0.0 mm
08:10 AM 42.1°F5.6°C 33.4°F0.8°C 71% 2.9 mph WNW4.7 kmh WNW 3.4 mph5.5 kmh 30.02 in1016.6 mb 0.00 in0.0 mm 0.00 in0.0 mm 0.00 in0.0 mm
08:07 AM 42.1°F5.6°C 33.4°F0.8°C 71% 3.8 mph WSW6.1 kmh WSW 4.7 mph7.6 kmh 30.03 in1016.9 mb 0.00 in0.0 mm 0.00 in0.0 mm 0.00 in0.0 mm
08:05 AM 42.1°F5.6°C 33.4°F0.8°C 71% 4.3 mph W6.9 kmh W 6.7 mph10.8 kmh 30.03 in1016.9 mb 0.00 in0.0 mm 0.00 in0.0 mm 0.00 in0.0 mm
08:03 AM 42.1°F5.6°C 33.4°F0.8°C 71% 3.8 mph WNW6.1 kmh WNW 7.8 mph12.6 kmh 30.03 in1016.9 mb 0.00 in0.0 mm 0.00 in0.0 mm 0.00 in0.0 mm
08:01 AM 41.9°F5.5°C 33.3°F0.7°C 71% 3.6 mph W5.8 kmh W 5.1 mph8.2 kmh 30.03 in1016.9 mb 0.00 in0.0 mm 0.00 in0.0 mm 0.00 in0.0 mm
07:59 AM 41.9°F5.5°C 33.3°F0.7°C 71% 3.4 mph W5.5 kmh W 5.1 mph8.2 kmh 30.03 in1016.9 mb 0.00 in0.0 mm 0.00 in0.0 mm 0.00 in0.0 mm
07:57 AM 41.9°F5.5°C 32.9°F0.5°C 70% 2.9 mph W4.7 kmh W 3.6 mph5.8 kmh 30.02 in1016.6 mb 0.00 in0.0 mm 0.00 in0.0 mm 0.00 in0.0 mm
07:54 AM 41.9°F5.5°C 32.9°F0.5°C 70% 3.6 mph WSW5.8 kmh WSW 5.1 mph8.2 kmh 30.02 in1016.6 mb 0.00 in0.0 mm 0.00 in0.0 mm 0.00 in0.0 mm
07:52 AM 41.7°F5.4°C 32.7°F0.4°C 70% 3.4 mph WSW5.5 kmh WSW 4.5 mph7.2 kmh 30.02 in1016.6 mb 0.00 in0.0 mm 0.00 in0.0 mm 0.00 in0.0 mm
07:50 AM 41.7°F5.4°C 32.7°F0.4°C 70% 3.1 mph W5.0 kmh W 5.1 mph8.2 kmh 30.02 in1016.6 mb 0.00 in0.0 mm 0.00 in0.0 mm 0.00 in0.0 mm
07:48 AM 41.7°F5.4°C 32.7°F0.4°C 70% 2.5 mph SW4.0 kmh SW 3.8 mph6.1 kmh 30.02 in1016.6 mb 0.00 in0.0 mm 0.00 in0.0 mm 0.00 in0.0 mm
07:46 AM 41.7°F5.4°C 32.4°F0.2°C 69% 2.5 mph WNW4.0 kmh WNW 3.6 mph5.8 kmh 30.01 in1016.3 mb 0.00 in0.0 mm 0.00 in0.0 mm 0.00 in0.0 mm
07:43 AM 41.7°F5.4°C 32.4°F0.2°C 69% 2.5 mph WNW4.0 kmh WNW 5.4 mph8.7 kmh 30.01 in1016.3 mb 0.00 in0.0 mm 0.00 in0.0 mm 0.00 in0.0 mm
07:41 AM 41.7°F5.4°C 32.4°F0.2°C 69% 2.7 mph W4.3 kmh W 6.0 mph9.7 kmh 30.01 in1016.3 mb 0.00 in0.0 mm 0.00 in0.0 mm 0.00 in0.0 mm
07:39 AM 41.7°F5.4°C 32.4°F0.2°C 69% 2.2 mph W3.5 kmh W 4.0 mph6.4 kmh 30.01 in1016.3 mb 0.00 in0.0 mm 0.00 in0.0 mm 0.00 in0.0 mm
07:37 AM 41.7°F5.4°C 32.4°F0.2°C 69% 2.5 mph W4.0 kmh W 5.1 mph8.2 kmh 30.01 in1016.3 mb 0.00 in0.0 mm 0.00 in0.0 mm 0.00 in0.0 mm
07:34 AM 41.7°F5.4°C 32.4°F0.2°C 69% 1.8 mph WSW2.9 kmh WSW 4.5 mph7.2 kmh 30.01 in1016.3 mb 0.00 in0.0 mm 0.00 in0.0 mm 0.00 in0.0 mm
07:32 AM 41.7°F5.4°C 32.0°F0.0°C 68% 1.3 mph WSW2.1 kmh WSW 2.0 mph3.2 kmh 30.01 in1016.3 mb 0.00 in0.0 mm 0.00 in0.0 mm 0.00 in0.0 mm
07:30 AM 41.7°F5.4°C 32.0°F0.0°C 68% 2.0 mph NNE3.2 kmh NNE 3.8 mph6.1 kmh 30.01 in1016.3 mb 0.00 in0.0 mm 0.00 in0.0 mm 0.00 in0.0 mm
07:28 AM 41.7°F5.4°C 32.0°F0.0°C 68% 2.2 mph W3.5 kmh W 3.1 mph5.0 kmh 30.01 in1016.3 mb 0.00 in0.0 mm 0.00 in0.0 mm 0.00 in0.0 mm
07:25 AM 41.7°F5.4°C 32.0°F0.0°C 68% 2.7 mph W4.3 kmh W 4.5 mph7.2 kmh 30.01 in1016.3 mb 0.00 in0.0 mm 0.00 in0.0 mm 0.00 in0.0 mm
07:23 AM 41.7°F5.4°C 32.0°F0.0°C 68% 2.7 mph WSW4.3 kmh WSW 3.1 mph5.0 kmh 30.00 in1015.9 mb 0.00 in0.0 mm 0.00 in0.0 mm 0.00 in0.0 mm
07:21 AM 41.7°F5.4°C 32.0°F0.0°C 68% 3.8 mph WNW6.1 kmh WNW 4.9 mph7.9 kmh 30.01 in1016.3 mb 0.00 in0.0 mm 0.00 in0.0 mm 0.00 in0.0 mm
07:19 AM 41.5°F5.3°C 31.8°F-0.1°C 68% 4.0 mph W6.4 kmh W 5.1 mph8.2 kmh 30.00 in1015.9 mb 0.00 in0.0 mm 0.00 in0.0 mm 0.00 in0.0 mm
07:17 AM 41.5°F5.3°C 31.8°F-0.1°C 68% 4.3 mph WSW6.9 kmh WSW 7.6 mph12.2 kmh 30.00 in1015.9 mb 0.00 in0.0 mm 0.00 in0.0 mm 0.00 in0.0 mm
07:15 AM 41.4°F5.2°C 31.6°F-0.2°C 68% 4.0 mph W6.4 kmh W 7.8 mph12.6 kmh 30.00 in1015.9 mb 0.00 in0.0 mm 0.00 in0.0 mm 0.00 in0.0 mm
07:13 AM 41.4°F5.2°C 31.6°F-0.2°C 68% 3.1 mph WNW5.0 kmh WNW 3.8 mph6.1 kmh 30.00 in1015.9 mb 0.00 in0.0 mm 0.00 in0.0 mm 0.00 in0.0 mm
07:10 AM 41.4°F5.2°C 31.3°F-0.4°C 67% 3.4 mph NW5.5 kmh NW 5.8 mph9.3 kmh 29.99 in1015.6 mb 0.00 in0.0 mm 0.00 in0.0 mm 0.00 in0.0 mm
07:08 AM 41.4°F5.2°C 31.3°F-0.4°C 67% 2.5 mph NW4.0 kmh NW 3.8 mph6.1 kmh 29.99 in1015.6 mb 0.00 in0.0 mm 0.00 in0.0 mm 0.00 in0.0 mm
07:06 AM 41.4°F5.2°C 31.3°F-0.4°C 67% 2.2 mph WSW3.5 kmh WSW 4.7 mph7.6 kmh 29.99 in1015.6 mb 0.00 in0.0 mm 0.00 in0.0 mm 0.00 in0.0 mm
07:04 AM 41.4°F5.2°C 31.3°F-0.4°C 67% 2.2 mph NNE3.5 kmh NNE 5.1 mph8.2 kmh 29.99 in1015.6 mb 0.00 in0.0 mm 0.00 in0.0 mm 0.00 in0.0 mm
07:02 AM 41.5°F5.3°C 31.5°F-0.3°C 67% 2.5 mph 4.0 kmh 4.5 mph7.2 kmh 29.99 in1015.6 mb 0.00 in0.0 mm 0.00 in0.0 mm 0.00 in0.0 mm
07:00 AM 41.4°F5.2°C 30.9°F-0.6°C 66% 2.5 mph WNW4.0 kmh WNW 4.7 mph7.6 kmh 30.00 in1015.9 mb 0.00 in0.0 mm 0.00 in0.0 mm 0.00 in0.0 mm
06:57 AM 41.4°F5.2°C 30.9°F-0.6°C 66% 2.0 mph NW3.2 kmh NW 5.8 mph9.3 kmh 29.99 in1015.6 mb 0.00 in0.0 mm 0.00 in0.0 mm 0.00 in0.0 mm
06:55 AM 41.4°F5.2°C 30.9°F-0.6°C 66% 1.3 mph WSW2.1 kmh WSW 1.3 mph2.1 kmh 30.00 in1015.9 mb 0.00 in0.0 mm 0.00 in0.0 mm 0.00 in0.0 mm
06:53 AM 41.5°F5.3°C 31.1°F-0.5°C 66% 1.8 mph WNW2.9 kmh WNW 4.3 mph6.9 kmh 29.99 in1015.6 mb 0.00 in0.0 mm 0.00 in0.0 mm 0.00 in0.0 mm
06:51 AM 41.4°F5.2°C 30.9°F-0.6°C 66% 2.2 mph NW3.5 kmh NW 4.3 mph6.9 kmh 30.00 in1015.9 mb 0.00 in0.0 mm 0.00 in0.0 mm 0.00 in0.0 mm
06:49 AM 41.5°F5.3°C 31.1°F-0.5°C 66% 2.5 mph NW4.0 kmh NW 3.6 mph5.8 kmh 30.00 in1015.9 mb 0.00 in0.0 mm 0.00 in0.0 mm 0.00 in0.0 mm
06:47 AM 41.4°F5.2°C 30.9°F-0.6°C 66% 1.8 mph WNW2.9 kmh WNW 3.4 mph5.5 kmh 29.99 in1015.6 mb 0.00 in0.0 mm 0.00 in0.0 mm 0.00 in0.0 mm
06:45 AM 41.5°F5.3°C 31.1°F-0.5°C 66% 2.2 mph W3.5 kmh W 3.4 mph5.5 kmh 29.99 in1015.6 mb 0.00 in0.0 mm 0.00 in0.0 mm 0.00 in0.0 mm
06:42 AM 41.5°F5.3°C 31.1°F-0.5°C 66% 2.9 mph NNW4.7 kmh NNW 5.8 mph9.3 kmh 29.99 in1015.6 mb 0.00 in0.0 mm 0.00 in0.0 mm 0.00 in0.0 mm
06:40 AM 41.4°F5.2°C 30.9°F-0.6°C 66% 4.0 mph WNW6.4 kmh WNW 5.4 mph8.7 kmh 29.99 in1015.6 mb 0.00 in0.0 mm 0.00 in0.0 mm 0.00 in0.0 mm
06:38 AM 41.2°F5.1°C 30.7°F-0.7°C 66% 3.8 mph NW6.1 kmh NW 5.1 mph8.2 kmh 29.99 in1015.6 mb 0.00 in0.0 mm 0.00 in0.0 mm 0.00 in0.0 mm
06:36 AM 41.2°F5.1°C 30.7°F-0.7°C 66% 4.0 mph NW6.4 kmh NW 6.0 mph9.7 kmh 29.99 in1015.6 mb 0.00 in0.0 mm 0.00 in0.0 mm 0.00 in0.0 mm
06:34 AM 40.8°F4.9°C 30.4°F-0.9°C 66% 3.6 mph WNW5.8 kmh WNW 7.8 mph12.6 kmh 29.99 in1015.6 mb 0.00 in0.0 mm 0.00 in0.0 mm 0.00 in0.0 mm
06:32 AM 40.8°F4.9°C 30.0°F-1.1°C 65% 2.7 mph NW4.3 kmh NW 4.5 mph7.2 kmh 29.98 in1015.2 mb 0.00 in0.0 mm 0.00 in0.0 mm 0.00 in0.0 mm
06:29 AM 40.8°F4.9°C 30.0°F-1.1°C 65% 2.5 mph 4.0 kmh 5.4 mph8.7 kmh 29.99 in1015.6 mb 0.00 in0.0 mm 0.00 in0.0 mm 0.00 in0.0 mm
06:27 AM 40.8°F4.9°C 30.0°F-1.1°C 65% 2.5 mph 4.0 kmh 3.1 mph5.0 kmh 29.99 in1015.6 mb 0.00 in0.0 mm 0.00 in0.0 mm 0.00 in0.0 mm
06:25 AM 41.0°F5.0°C 30.2°F-1.0°C 65% 3.6 mph 5.8 kmh 6.7 mph10.8 kmh 29.98 in1015.2 mb 0.00 in0.0 mm 0.00 in0.0 mm 0.00 in0.0 mm
06:23 AM 41.2°F5.1°C 30.0°F-1.1°C 64% 2.9 mph SW4.7 kmh SW 5.1 mph8.2 kmh 29.99 in1015.6 mb 0.00 in0.0 mm 0.00 in0.0 mm 0.00 in0.0 mm
06:21 AM 41.5°F5.3°C 30.2°F-1.0°C 64% 2.9 mph NW4.7 kmh NW 3.1 mph5.0 kmh 29.99 in1015.6 mb 0.00 in0.0 mm 0.00 in0.0 mm 0.00 in0.0 mm
06:19 AM 41.7°F5.4°C 30.4°F-0.9°C 64% 3.4 mph NNW5.5 kmh NNW 6.9 mph11.1 kmh 29.99 in1015.6 mb 0.00 in0.0 mm 0.00 in0.0 mm 0.00 in0.0 mm
06:16 AM 41.9°F5.5°C 30.6°F-0.8°C 64% 3.6 mph NNE5.8 kmh NNE 4.0 mph6.4 kmh 29.99 in1015.6 mb 0.00 in0.0 mm 0.00 in0.0 mm 0.00 in0.0 mm
06:14 AM 41.9°F5.5°C 30.9°F-0.6°C 65% 4.7 mph W7.6 kmh W 9.2 mph14.8 kmh 29.99 in1015.6 mb 0.00 in0.0 mm 0.00 in0.0 mm 0.00 in0.0 mm
06:12 AM 41.7°F5.4°C 30.7°F-0.7°C 65% 5.1 mph NNW8.2 kmh NNW 9.8 mph15.8 kmh 29.99 in1015.6 mb 0.00 in0.0 mm 0.00 in0.0 mm 0.00 in0.0 mm
06:10 AM 41.7°F5.4°C 30.4°F-0.9°C 64% 4.0 mph NW6.4 kmh NW 4.7 mph7.6 kmh 29.98 in1015.2 mb 0.00 in0.0 mm 0.00 in0.0 mm 0.00 in0.0 mm
06:08 AM 41.7°F5.4°C 30.4°F-0.9°C 64% 4.9 mph NW7.9 kmh NW 10.7 mph17.2 kmh 29.98 in1015.2 mb 0.00 in0.0 mm 0.00 in0.0 mm 0.00 in0.0 mm
06:06 AM 41.5°F5.3°C 30.2°F-1.0°C 64% 4.3 mph 6.9 kmh 6.9 mph11.1 kmh 29.98 in1015.2 mb 0.00 in0.0 mm 0.00 in0.0 mm 0.00 in0.0 mm
06:03 AM 41.5°F5.3°C 30.2°F-1.0°C 64% 4.7 mph WNW7.6 kmh WNW 9.6 mph15.4 kmh 29.98 in1015.2 mb 0.00 in0.0 mm 0.00 in0.0 mm 0.00 in0.0 mm
06:01 AM 41.4°F5.2°C 30.0°F-1.1°C 64% 4.3 mph NNW6.9 kmh NNW 9.4 mph15.1 kmh 29.98 in1015.2 mb 0.00 in0.0 mm 0.00 in0.0 mm 0.00 in0.0 mm
05:59 AM 41.2°F5.1°C 30.0°F-1.1°C 64% 3.8 mph WSW6.1 kmh WSW 6.3 mph10.1 kmh 29.98 in1015.2 mb 0.00 in0.0 mm 0.00 in0.0 mm 0.00 in0.0 mm
05:57 AM 41.2°F5.1°C 29.5°F-1.4°C 63% 3.6 mph NW5.8 kmh NW 5.1 mph8.2 kmh 29.98 in1015.2 mb 0.00 in0.0 mm 0.00 in0.0 mm 0.00 in0.0 mm
05:55 AM 41.2°F5.1°C 29.1°F-1.6°C 62% 3.6 mph NW5.8 kmh NW 4.7 mph7.6 kmh 29.98 in1015.2 mb 0.00 in0.0 mm 0.00 in0.0 mm 0.00 in0.0 mm
05:52 AM 41.5°F5.3°C 29.5°F-1.4°C 62% 3.6 mph NW5.8 kmh NW 5.1 mph8.2 kmh 29.98 in1015.2 mb 0.00 in0.0 mm 0.00 in0.0 mm 0.00 in0.0 mm
05:50 AM 41.9°F5.5°C 29.8°F-1.2°C 62% 3.6 mph WSW5.8 kmh WSW 4.3 mph6.9 kmh 29.98 in1015.2 mb 0.00 in0.0 mm 0.00 in0.0 mm 0.00 in0.0 mm
05:48 AM 42.1°F5.6°C 29.7°F-1.3°C 61% 4.0 mph WNW6.4 kmh WNW 6.9 mph11.1 kmh 29.98 in1015.2 mb 0.00 in0.0 mm 0.00 in0.0 mm 0.00 in0.0 mm
05:46 AM 42.1°F5.6°C 29.7°F-1.3°C 61% 5.1 mph WNW8.2 kmh WNW 12.3 mph19.8 kmh 29.98 in1015.2 mb 0.00 in0.0 mm 0.00 in0.0 mm 0.00 in0.0 mm
05:43 AM 42.4°F5.8°C 30.0°F-1.1°C 61% 6.3 mph WSW10.1 kmh WSW 8.9 mph14.3 kmh 29.98 in1015.2 mb 0.00 in0.0 mm 0.00 in0.0 mm 0.00 in0.0 mm
05:41 AM 42.4°F5.8°C 30.0°F-1.1°C 61% 6.5 mph NNE10.5 kmh NNE 10.3 mph16.6 kmh 29.98 in1015.2 mb 0.00 in0.0 mm 0.00 in0.0 mm 0.00 in0.0 mm
05:39 AM 42.4°F5.8°C 30.0°F-1.1°C 61% 6.7 mph WNW10.8 kmh WNW 9.8 mph15.8 kmh 29.98 in1015.2 mb 0.00 in0.0 mm 0.00 in0.0 mm 0.00 in0.0 mm
05:37 AM 42.1°F5.6°C 29.7°F-1.3°C 61% 7.8 mph NNW12.6 kmh NNW 13.0 mph20.9 kmh 29.98 in1015.2 mb 0.00 in0.0 mm 0.00 in0.0 mm 0.00 in0.0 mm
05:35 AM 42.1°F5.6°C 29.7°F-1.3°C 61% 8.3 mph WNW13.4 kmh WNW 11.9 mph19.2 kmh 29.97 in1014.9 mb 0.00 in0.0 mm 0.00 in0.0 mm 0.00 in0.0 mm
05:32 AM 41.9°F5.5°C 29.8°F-1.2°C 62% 8.7 mph NNW14.0 kmh NNW 15.9 mph25.6 kmh 29.98 in1015.2 mb 0.00 in0.0 mm 0.00 in0.0 mm 0.00 in0.0 mm
05:30 AM 41.7°F5.4°C 29.7°F-1.3°C 62% 7.8 mph 12.6 kmh 12.8 mph20.6 kmh 29.97 in1014.9 mb 0.00 in0.0 mm 0.00 in0.0 mm 0.00 in0.0 mm
05:28 AM 41.5°F5.3°C 29.5°F-1.4°C 62% 8.3 mph NNW13.4 kmh NNW 16.1 mph25.9 kmh 29.97 in1014.9 mb 0.00 in0.0 mm 0.00 in0.0 mm 0.00 in0.0 mm
05:26 AM 41.2°F5.1°C 29.1°F-1.6°C 62% 6.5 mph W10.5 kmh W 12.1 mph19.5 kmh 29.97 in1014.9 mb 0.00 in0.0 mm 0.00 in0.0 mm 0.00 in0.0 mm
05:24 AM 41.2°F5.1°C 29.1°F-1.6°C 62% 5.1 mph W8.2 kmh W 7.6 mph12.2 kmh 29.98 in1015.2 mb 0.00 in0.0 mm 0.00 in0.0 mm 0.00 in0.0 mm
05:21 AM 41.4°F5.2°C 28.9°F-1.7°C 61% 4.5 mph NE7.2 kmh NE 8.3 mph13.4 kmh 29.98 in1015.2 mb 0.00 in0.0 mm 0.00 in0.0 mm 0.00 in0.0 mm
05:19 AM 41.7°F5.4°C 29.3°F-1.5°C 61% 5.4 mph NW8.7 kmh NW 6.3 mph10.1 kmh 29.98 in1015.2 mb 0.00 in0.0 mm 0.00 in0.0 mm 0.00 in0.0 mm
05:17 AM 42.1°F5.6°C 29.1°F-1.6°C 60% 5.8 mph NW9.3 kmh NW 11.0 mph17.7 kmh 29.99 in1015.6 mb 0.00 in0.0 mm 0.00 in0.0 mm 0.00 in0.0 mm
05:15 AM 42.4°F5.8°C 29.5°F-1.4°C 60% 6.5 mph WNW10.5 kmh WNW 11.2 mph18.0 kmh 29.99 in1015.6 mb 0.00 in0.0 mm 0.00 in0.0 mm 0.00 in0.0 mm
05:12 AM 42.4°F5.8°C 29.5°F-1.4°C 60% 6.5 mph NW10.5 kmh NW 9.8 mph15.8 kmh 29.99 in1015.6 mb 0.00 in0.0 mm 0.00 in0.0 mm 0.00 in0.0 mm
05:10 AM 42.4°F5.8°C 29.5°F-1.4°C 60% 6.0 mph WNW9.7 kmh WNW 8.1 mph13.0 kmh 29.99 in1015.6 mb 0.00 in0.0 mm 0.00 in0.0 mm 0.00 in0.0 mm
05:08 AM 42.4°F5.8°C 29.5°F-1.4°C 60% 5.6 mph W9.0 kmh W 8.9 mph14.3 kmh 29.99 in1015.6 mb 0.00 in0.0 mm 0.00 in0.0 mm 0.00 in0.0 mm
05:06 AM 42.4°F5.8°C 29.5°F-1.4°C 60% 6.0 mph WSW9.7 kmh WSW 8.5 mph13.7 kmh 29.99 in1015.6 mb 0.00 in0.0 mm 0.00 in0.0 mm 0.00 in0.0 mm
05:04 AM 42.4°F5.8°C 29.5°F-1.4°C 60% 6.3 mph WNW10.1 kmh WNW 10.3 mph16.6 kmh 29.99 in1015.6 mb 0.00 in0.0 mm 0.00 in0.0 mm 0.00 in0.0 mm
05:02 AM 42.4°F5.8°C 29.5°F-1.4°C 60% 5.8 mph 9.3 kmh 6.7 mph10.8 kmh 29.98 in1015.2 mb 0.00 in0.0 mm 0.00 in0.0 mm 0.00 in0.0 mm
04:59 AM 42.4°F5.8°C 29.5°F-1.4°C 60% 6.9 mph NNW11.1 kmh NNW 9.6 mph15.4 kmh 29.98 in1015.2 mb 0.00 in0.0 mm 0.00 in0.0 mm 0.00 in0.0 mm
04:57 AM 42.6°F5.9°C 29.3°F-1.5°C 59% 6.7 mph NW10.8 kmh NW 13.4 mph21.6 kmh 29.98 in1015.2 mb 0.00 in0.0 mm 0.00 in0.0 mm 0.00 in0.0 mm
04:55 AM 42.6°F5.9°C 29.7°F-1.3°C 60% 8.1 mph W13.0 kmh W 13.2 mph21.2 kmh 29.98 in1015.2 mb 0.00 in0.0 mm 0.00 in0.0 mm 0.00 in0.0 mm
04:53 AM 42.4°F5.8°C 29.5°F-1.4°C 60% 7.4 mph NNW11.9 kmh NNW 14.5 mph23.3 kmh 29.98 in1015.2 mb 0.00 in0.0 mm 0.00 in0.0 mm 0.00 in0.0 mm
04:50 AM 42.4°F5.8°C 29.5°F-1.4°C 60% 5.8 mph SW9.3 kmh SW 6.5 mph10.5 kmh 29.98 in1015.2 mb 0.00 in0.0 mm 0.00 in0.0 mm 0.00 in0.0 mm
04:48 AM 42.4°F5.8°C 29.5°F-1.4°C 60% 7.4 mph WSW11.9 kmh WSW 13.0 mph20.9 kmh 29.98 in1015.2 mb 0.00 in0.0 mm 0.00 in0.0 mm 0.00 in0.0 mm
04:46 AM 42.4°F5.8°C 29.1°F-1.6°C 59% 8.3 mph 13.4 kmh 11.9 mph19.2 kmh 29.98 in1015.2 mb 0.00 in0.0 mm 0.00 in0.0 mm 0.00 in0.0 mm
04:44 AM 42.4°F5.8°C 29.1°F-1.6°C 59% 8.3 mph WNW13.4 kmh WNW 16.1 mph25.9 kmh 29.98 in1015.2 mb 0.00 in0.0 mm 0.00 in0.0 mm 0.00 in0.0 mm
04:41 AM 42.4°F5.8°C 29.1°F-1.6°C 59% 7.2 mph NW11.6 kmh NW 10.5 mph16.9 kmh 29.98 in1015.2 mb 0.00 in0.0 mm 0.00 in0.0 mm 0.00 in0.0 mm
04:39 AM 42.4°F5.8°C 29.1°F-1.6°C 59% 6.5 mph WNW10.5 kmh WNW 7.6 mph12.2 kmh 29.98 in1015.2 mb 0.00 in0.0 mm 0.00 in0.0 mm 0.00 in0.0 mm
04:37 AM 42.4°F5.8°C 29.1°F-1.6°C 59% 7.2 mph NNW11.6 kmh NNW 9.8 mph15.8 kmh 29.98 in1015.2 mb 0.00 in0.0 mm 0.00 in0.0 mm 0.00 in0.0 mm
04:35 AM 42.1°F5.6°C 28.8°F-1.8°C 59% 7.2 mph NW11.6 kmh NW 12.1 mph19.5 kmh 29.98 in1015.2 mb 0.00 in0.0 mm 0.00 in0.0 mm 0.00 in0.0 mm
04:33 AM 42.1°F5.6°C 28.8°F-1.8°C 59% 7.4 mph NW11.9 kmh NW 12.8 mph20.6 kmh 29.98 in1015.2 mb 0.00 in0.0 mm 0.00 in0.0 mm 0.00 in0.0 mm
04:31 AM 41.7°F5.4°C 28.4°F-2.0°C 59% 6.3 mph W10.1 kmh W 11.9 mph19.2 kmh 29.98 in1015.2 mb 0.00 in0.0 mm 0.00 in0.0 mm 0.00 in0.0 mm
04:28 AM 41.5°F5.3°C 28.2°F-2.1°C 59% 5.6 mph NNW9.0 kmh NNW 10.5 mph16.9 kmh 29.98 in1015.2 mb 0.00 in0.0 mm 0.00 in0.0 mm 0.00 in0.0 mm
04:26 AM 41.5°F5.3°C 28.2°F-2.1°C 59% 4.9 mph WNW7.9 kmh WNW 6.3 mph10.1 kmh 29.98 in1015.2 mb 0.00 in0.0 mm 0.00 in0.0 mm 0.00 in0.0 mm
04:24 AM 41.5°F5.3°C 27.9°F-2.3°C 58% 5.1 mph SSW8.2 kmh SSW 9.8 mph15.8 kmh 29.98 in1015.2 mb 0.00 in0.0 mm 0.00 in0.0 mm 0.00 in0.0 mm
04:22 AM 41.7°F5.4°C 28.4°F-2.0°C 59% 5.1 mph 8.2 kmh 7.2 mph11.6 kmh 29.98 in1015.2 mb 0.00 in0.0 mm 0.00 in0.0 mm 0.00 in0.0 mm
04:20 AM 41.9°F5.5°C 28.6°F-1.9°C 59% 5.6 mph NW9.0 kmh NW 8.3 mph13.4 kmh 29.99 in1015.6 mb 0.00 in0.0 mm 0.00 in0.0 mm 0.00 in0.0 mm
04:17 AM 41.9°F5.5°C 28.6°F-1.9°C 59% 6.0 mph WNW9.7 kmh WNW 9.4 mph15.1 kmh 29.98 in1015.2 mb 0.00 in0.0 mm 0.00 in0.0 mm 0.00 in0.0 mm
04:15 AM 41.7°F5.4°C 28.4°F-2.0°C 59% 6.0 mph W9.7 kmh W 7.6 mph12.2 kmh 29.98 in1015.2 mb 0.00 in0.0 mm 0.00 in0.0 mm 0.00 in0.0 mm
04:13 AM 41.5°F5.3°C 28.8°F-1.8°C 60% 6.3 mph NW10.1 kmh NW 10.3 mph16.6 kmh 29.98 in1015.2 mb 0.00 in0.0 mm 0.00 in0.0 mm 0.00 in0.0 mm
04:11 AM 41.0°F5.0°C 28.2°F-2.1°C 60% 4.9 mph W7.9 kmh W 9.8 mph15.8 kmh 29.99 in1015.6 mb 0.00 in0.0 mm 0.00 in0.0 mm 0.00 in0.0 mm
04:09 AM 40.8°F4.9°C 28.4°F-2.0°C 61% 4.0 mph W6.4 kmh W 7.6 mph12.2 kmh 29.99 in1015.6 mb 0.00 in0.0 mm 0.00 in0.0 mm 0.00 in0.0 mm
04:07 AM 40.8°F4.9°C 28.0°F-2.2°C 60% 3.1 mph WSW5.0 kmh WSW 7.6 mph12.2 kmh 29.99 in1015.6 mb 0.00 in0.0 mm 0.00 in0.0 mm 0.00 in0.0 mm
04:04 AM 40.8°F4.9°C 28.0°F-2.2°C 60% 2.9 mph WNW4.7 kmh WNW 7.2 mph11.6 kmh 29.99 in1015.6 mb 0.00 in0.0 mm 0.00 in0.0 mm 0.00 in0.0 mm
04:02 AM 40.8°F4.9°C 28.0°F-2.2°C 60% 2.9 mph NW4.7 kmh NW 4.5 mph7.2 kmh 29.99 in1015.6 mb 0.00 in0.0 mm 0.00 in0.0 mm 0.00 in0.0 mm
04:00 AM 41.0°F5.0°C 28.2°F-2.1°C 60% 2.9 mph NNW4.7 kmh NNW 4.7 mph7.6 kmh 29.99 in1015.6 mb 0.00 in0.0 mm 0.00 in0.0 mm 0.00 in0.0 mm
03:58 AM 41.2°F5.1°C 27.9°F-2.3°C 59% 2.0 mph W3.2 kmh W 4.7 mph7.6 kmh 29.99 in1015.6 mb 0.00 in0.0 mm 0.00 in0.0 mm 0.00 in0.0 mm
03:56 AM 41.4°F5.2°C 28.0°F-2.2°C 59% 1.6 mph W2.6 kmh W 2.7 mph4.3 kmh 29.99 in1015.6 mb 0.00 in0.0 mm 0.00 in0.0 mm 0.00 in0.0 mm
03:53 AM 41.5°F5.3°C 28.2°F-2.1°C 59% 1.8 mph NE2.9 kmh NE 4.5 mph7.2 kmh 29.99 in1015.6 mb 0.00 in0.0 mm 0.00 in0.0 mm 0.00 in0.0 mm
03:51 AM 41.5°F5.3°C 28.2°F-2.1°C 59% 2.0 mph NNE3.2 kmh NNE 2.5 mph4.0 kmh 29.99 in1015.6 mb 0.00 in0.0 mm 0.00 in0.0 mm 0.00 in0.0 mm
03:49 AM 41.7°F5.4°C 28.4°F-2.0°C 59% 2.5 mph NNW4.0 kmh NNW 4.5 mph7.2 kmh 29.99 in1015.6 mb 0.00 in0.0 mm 0.00 in0.0 mm 0.00 in0.0 mm
03:47 AM 41.7°F5.4°C 28.4°F-2.0°C 59% 2.9 mph WSW4.7 kmh WSW 5.8 mph9.3 kmh 29.99 in1015.6 mb 0.00 in0.0 mm 0.00 in0.0 mm 0.00 in0.0 mm
03:45 AM 41.5°F5.3°C 28.2°F-2.1°C 59% 3.1 mph WNW5.0 kmh WNW 7.4 mph11.9 kmh 29.99 in1015.6 mb 0.00 in0.0 mm 0.00 in0.0 mm 0.00 in0.0 mm
03:43 AM 41.5°F5.3°C 28.2°F-2.1°C 59% 2.9 mph NW4.7 kmh NW 5.1 mph8.2 kmh 29.99 in1015.6 mb 0.00 in0.0 mm 0.00 in0.0 mm 0.00 in0.0 mm
03:40 AM 41.5°F5.3°C 28.2°F-2.1°C 59% 3.1 mph NNW5.0 kmh NNW 7.4 mph11.9 kmh 29.99 in1015.6 mb 0.00 in0.0 mm 0.00 in0.0 mm 0.00 in0.0 mm
03:38 AM 41.5°F5.3°C 28.2°F-2.1°C 59% 2.2 mph W3.5 kmh W 4.5 mph7.2 kmh 29.99 in1015.6 mb 0.00 in0.0 mm 0.00 in0.0 mm 0.00 in0.0 mm
03:36 AM 41.5°F5.3°C 27.9°F-2.3°C 58% 2.2 mph ENE3.5 kmh ENE 4.3 mph6.9 kmh 29.98 in1015.2 mb 0.00 in0.0 mm 0.00 in0.0 mm 0.00 in0.0 mm
03:34 AM 41.7°F5.4°C 28.0°F-2.2°C 58% 2.7 mph WNW4.3 kmh WNW 4.9 mph7.9 kmh 29.98 in1015.2 mb 0.00 in0.0 mm 0.00 in0.0 mm 0.00 in0.0 mm
03:31 AM 41.9°F5.5°C 28.2°F-2.1°C 58% 3.1 mph WNW5.0 kmh WNW 4.9 mph7.9 kmh 29.98 in1015.2 mb 0.00 in0.0 mm 0.00 in0.0 mm 0.00 in0.0 mm
03:29 AM 41.9°F5.5°C 28.2°F-2.1°C 58% 2.9 mph NNW4.7 kmh NNW 5.4 mph8.7 kmh 29.98 in1015.2 mb 0.00 in0.0 mm 0.00 in0.0 mm 0.00 in0.0 mm
03:27 AM 41.7°F5.4°C 28.0°F-2.2°C 58% 3.8 mph W6.1 kmh W 6.7 mph10.8 kmh 29.99 in1015.6 mb 0.00 in0.0 mm 0.00 in0.0 mm 0.00 in0.0 mm
03:25 AM 41.7°F5.4°C 28.0°F-2.2°C 58% 2.7 mph WNW4.3 kmh WNW 3.6 mph5.8 kmh 29.99 in1015.6 mb 0.00 in0.0 mm 0.00 in0.0 mm 0.00 in0.0 mm
03:22 AM 41.5°F5.3°C 27.9°F-2.3°C 58% 3.4 mph WNW5.5 kmh WNW 10.7 mph17.2 kmh 29.99 in1015.6 mb 0.00 in0.0 mm 0.00 in0.0 mm 0.00 in0.0 mm
03:20 AM 41.5°F5.3°C 27.9°F-2.3°C 58% 2.7 mph NW4.3 kmh NW 3.8 mph6.1 kmh 29.99 in1015.6 mb 0.00 in0.0 mm 0.00 in0.0 mm 0.00 in0.0 mm
03:18 AM 41.5°F5.3°C 27.9°F-2.3°C 58% 3.1 mph WNW5.0 kmh WNW 4.3 mph6.9 kmh 29.99 in1015.6 mb 0.00 in0.0 mm 0.00 in0.0 mm 0.00 in0.0 mm
03:16 AM 41.5°F5.3°C 27.9°F-2.3°C 58% 3.1 mph NW5.0 kmh NW 5.8 mph9.3 kmh 29.99 in1015.6 mb 0.00 in0.0 mm 0.00 in0.0 mm 0.00 in0.0 mm
03:14 AM 41.7°F5.4°C 28.0°F-2.2°C 58% 2.9 mph W4.7 kmh W 4.7 mph7.6 kmh 29.99 in1015.6 mb 0.00 in0.0 mm 0.00 in0.0 mm 0.00 in0.0 mm
03:11 AM 41.7°F5.4°C 28.0°F-2.2°C 58% 2.5 mph W4.0 kmh W 3.8 mph6.1 kmh 29.99 in1015.6 mb 0.00 in0.0 mm 0.00 in0.0 mm 0.00 in0.0 mm
03:09 AM 41.7°F5.4°C 28.0°F-2.2°C 58% 2.9 mph WNW4.7 kmh WNW 4.9 mph7.9 kmh 29.99 in1015.6 mb 0.00 in0.0 mm 0.00 in0.0 mm 0.00 in0.0 mm
03:07 AM 41.7°F5.4°C 28.0°F-2.2°C 58% 3.1 mph WSW5.0 kmh WSW 6.5 mph10.5 kmh 29.99 in1015.6 mb 0.00 in0.0 mm 0.00 in0.0 mm 0.00 in0.0 mm
03:05 AM 41.7°F5.4°C 28.0°F-2.2°C 58% 3.1 mph NW5.0 kmh NW 6.0 mph9.7 kmh 29.99 in1015.6 mb 0.00 in0.0 mm 0.00 in0.0 mm 0.00 in0.0 mm
03:03 AM 41.5°F5.3°C 27.9°F-2.3°C 58% 2.9 mph WNW4.7 kmh WNW 6.0 mph9.7 kmh 29.99 in1015.6 mb 0.00 in0.0 mm 0.00 in0.0 mm 0.00 in0.0 mm
03:01 AM 41.7°F5.4°C 28.0°F-2.2°C 58% 2.2 mph W3.5 kmh W 2.9 mph4.7 kmh 29.99 in1015.6 mb 0.00 in0.0 mm 0.00 in0.0 mm 0.00 in0.0 mm
02:58 AM 41.7°F5.4°C 28.0°F-2.2°C 58% 2.0 mph NNE3.2 kmh NNE 3.6 mph5.8 kmh 29.99 in1015.6 mb 0.00 in0.0 mm 0.00 in0.0 mm 0.00 in0.0 mm
02:56 AM 41.7°F5.4°C 28.0°F-2.2°C 58% 2.0 mph W3.2 kmh W 5.8 mph9.3 kmh 29.99 in1015.6 mb 0.00 in0.0 mm 0.00 in0.0 mm 0.00 in0.0 mm
02:54 AM 41.7°F5.4°C 27.7°F-2.4°C 57% 1.1 mph W1.8 kmh W 2.7 mph4.3 kmh 29.99 in1015.6 mb 0.00 in0.0 mm 0.00 in0.0 mm 0.00 in0.0 mm
02:52 AM 41.9°F5.5°C 27.9°F-2.3°C 57% 1.1 mph WNW1.8 kmh WNW 2.9 mph4.7 kmh 29.99 in1015.6 mb 0.00 in0.0 mm 0.00 in0.0 mm 0.00 in0.0 mm
02:49 AM 42.1°F5.6°C 27.9°F-2.3°C 57% 1.6 mph SW2.6 kmh SW 2.5 mph4.0 kmh 29.99 in1015.6 mb 0.00 in0.0 mm 0.00 in0.0 mm 0.00 in0.0 mm
02:47 AM 42.1°F5.6°C 27.9°F-2.3°C 57% 2.2 mph SW3.5 kmh SW 4.0 mph6.4 kmh 29.99 in1015.6 mb 0.00 in0.0 mm 0.00 in0.0 mm 0.00 in0.0 mm
02:45 AM 42.4°F5.8°C 28.2°F-2.1°C 57% 2.7 mph 4.3 kmh 4.0 mph6.4 kmh 29.99 in1015.6 mb 0.00 in0.0 mm 0.00 in0.0 mm 0.00 in0.0 mm
02:43 AM 42.4°F5.8°C 28.2°F-2.1°C 57% 3.1 mph W5.0 kmh W 5.4 mph8.7 kmh 29.99 in1015.6 mb 0.00 in0.0 mm 0.00 in0.0 mm 0.00 in0.0 mm
02:40 AM 42.6°F5.9°C 28.4°F-2.0°C 57% 2.9 mph WNW4.7 kmh WNW 4.7 mph7.6 kmh 29.99 in1015.6 mb 0.00 in0.0 mm 0.00 in0.0 mm 0.00 in0.0 mm
02:38 AM 42.6°F5.9°C 28.4°F-2.0°C 57% 3.8 mph NW6.1 kmh NW 4.7 mph7.6 kmh 29.99 in1015.6 mb 0.00 in0.0 mm 0.00 in0.0 mm 0.00 in0.0 mm
02:36 AM 42.6°F5.9°C 28.4°F-2.0°C 57% 4.0 mph WNW6.4 kmh WNW 7.6 mph12.2 kmh 29.99 in1015.6 mb 0.00 in0.0 mm 0.00 in0.0 mm 0.00 in0.0 mm
02:33 AM 42.6°F5.9°C 28.0°F-2.2°C 56% 4.7 mph WNW7.6 kmh WNW 7.2 mph11.6 kmh 29.99 in1015.6 mb 0.00 in0.0 mm 0.00 in0.0 mm 0.00 in0.0 mm
02:31 AM 42.6°F5.9°C 28.0°F-2.2°C 56% 4.7 mph SW7.6 kmh SW 9.4 mph15.1 kmh 30.00 in1015.9 mb 0.00 in0.0 mm 0.00 in0.0 mm 0.00 in0.0 mm
02:29 AM 42.8°F6.0°C 28.2°F-2.1°C 56% 3.6 mph WSW5.8 kmh WSW 6.9 mph11.1 kmh 29.99 in1015.6 mb 0.00 in0.0 mm 0.00 in0.0 mm 0.00 in0.0 mm
02:27 AM 42.6°F5.9°C 28.0°F-2.2°C 56% 3.8 mph W6.1 kmh W 8.9 mph14.3 kmh 29.99 in1015.6 mb 0.00 in0.0 mm 0.00 in0.0 mm 0.00 in0.0 mm
02:24 AM 42.6°F5.9°C 28.0°F-2.2°C 56% 3.4 mph W5.5 kmh W 5.4 mph8.7 kmh 29.99 in1015.6 mb 0.00 in0.0 mm 0.00 in0.0 mm 0.00 in0.0 mm
02:22 AM 42.6°F5.9°C 28.0°F-2.2°C 56% 3.8 mph NW6.1 kmh NW 5.8 mph9.3 kmh 29.99 in1015.6 mb 0.00 in0.0 mm 0.00 in0.0 mm 0.00 in0.0 mm
02:20 AM 42.8°F6.0°C 28.2°F-2.1°C 56% 4.3 mph NNW6.9 kmh NNW 6.5 mph10.5 kmh 29.99 in1015.6 mb 0.00 in0.0 mm 0.00 in0.0 mm 0.00 in0.0 mm
02:18 AM 42.6°F5.9°C 28.0°F-2.2°C 56% 4.5 mph E7.2 kmh E 9.8 mph15.8 kmh 29.99 in1015.6 mb 0.00 in0.0 mm 0.00 in0.0 mm 0.00 in0.0 mm
02:16 AM 42.6°F5.9°C 28.0°F-2.2°C 56% 4.9 mph WNW7.9 kmh WNW 12.3 mph19.8 kmh 29.99 in1015.6 mb 0.00 in0.0 mm 0.00 in0.0 mm 0.00 in0.0 mm
02:13 AM 42.6°F5.9°C 28.4°F-2.0°C 57% 3.1 mph WNW5.0 kmh WNW 7.6 mph12.2 kmh 29.99 in1015.6 mb 0.00 in0.0 mm 0.00 in0.0 mm 0.00 in0.0 mm
02:11 AM 42.4°F5.8°C 28.2°F-2.1°C 57% 3.6 mph WNW5.8 kmh WNW 7.6 mph12.2 kmh 29.99 in1015.6 mb 0.00 in0.0 mm 0.00 in0.0 mm 0.00 in0.0 mm
02:09 AM 42.3°F5.7°C 28.0°F-2.2°C 57% 2.5 mph 4.0 kmh 4.3 mph6.9 kmh 29.99 in1015.6 mb 0.00 in0.0 mm 0.00 in0.0 mm 0.00 in0.0 mm
02:07 AM 42.3°F5.7°C 28.0°F-2.2°C 57% 3.1 mph NNE5.0 kmh NNE 6.5 mph10.5 kmh 29.99 in1015.6 mb 0.00 in0.0 mm 0.00 in0.0 mm 0.00 in0.0 mm
02:05 AM 42.4°F5.8°C 27.9°F-2.3°C 56% 2.9 mph WNW4.7 kmh WNW 6.5 mph10.5 kmh 29.99 in1015.6 mb 0.00 in0.0 mm 0.00 in0.0 mm 0.00 in0.0 mm
02:03 AM 42.4°F5.8°C 27.9°F-2.3°C 56% 3.1 mph W5.0 kmh W -- 29.99 in1015.6 mb 0.00 in0.0 mm 0.00 in0.0 mm 0.00 in0.0 mm
01:57 AM 42.4°F5.8°C 27.9°F-2.3°C 56% 4.3 mph NNW6.9 kmh NNW 9.8 mph15.8 kmh 29.99 in1015.6 mb 0.00 in0.0 mm 0.00 in0.0 mm 0.00 in0.0 mm
01:55 AM 42.3°F5.7°C 28.0°F-2.2°C 57% 2.5 mph WSW4.0 kmh WSW 3.6 mph5.8 kmh 29.99 in1015.6 mb 0.00 in0.0 mm 0.00 in0.0 mm 0.00 in0.0 mm
01:53 AM 42.4°F5.8°C 28.2°F-2.1°C 57% 2.9 mph W4.7 kmh W 6.0 mph9.7 kmh 29.99 in1015.6 mb 0.00 in0.0 mm 0.00 in0.0 mm 0.00 in0.0 mm
01:51 AM 42.4°F5.8°C 28.2°F-2.1°C 57% 2.9 mph NW4.7 kmh NW 4.7 mph7.6 kmh 29.99 in1015.6 mb 0.00 in0.0 mm 0.00 in0.0 mm 0.00 in0.0 mm
01:49 AM 42.4°F5.8°C 28.2°F-2.1°C 57% 2.7 mph W4.3 kmh W 6.7 mph10.8 kmh 29.99 in1015.6 mb 0.00 in0.0 mm 0.00 in0.0 mm 0.00 in0.0 mm
01:47 AM 42.4°F5.8°C 28.2°F-2.1°C 57% 2.5 mph SSW4.0 kmh SSW 6.3 mph10.1 kmh 29.99 in1015.6 mb 0.00 in0.0 mm 0.00 in0.0 mm 0.00 in0.0 mm
01:44 AM 42.4°F5.8°C 28.2°F-2.1°C 57% 2.2 mph W3.5 kmh W 3.8 mph6.1 kmh 29.99 in1015.6 mb 0.00 in0.0 mm 0.00 in0.0 mm 0.00 in0.0 mm
01:42 AM 42.4°F5.8°C 28.2°F-2.1°C 57% 1.3 mph WNW2.1 kmh WNW 3.1 mph5.0 kmh 29.99 in1015.6 mb 0.00 in0.0 mm 0.00 in0.0 mm 0.00 in0.0 mm
01:40 AM 42.6°F5.9°C 28.0°F-2.2°C 56% 1.3 mph W2.1 kmh W 2.2 mph3.5 kmh 29.99 in1015.6 mb 0.00 in0.0 mm 0.00 in0.0 mm 0.00 in0.0 mm
01:38 AM 42.6°F5.9°C 28.0°F-2.2°C 56% 1.8 mph NNW2.9 kmh NNW 7.8 mph12.6 kmh 29.99 in1015.6 mb 0.00 in0.0 mm 0.00 in0.0 mm 0.00 in0.0 mm
01:36 AM 43.0°F6.1°C 28.4°F-2.0°C 56% 1.3 mph WNW2.1 kmh WNW 2.2 mph3.5 kmh 29.99 in1015.6 mb 0.00 in0.0 mm 0.00 in0.0 mm 0.00 in0.0 mm
01:34 AM 43.0°F6.1°C 28.4°F-2.0°C 56% 2.2 mph W3.5 kmh W 5.1 mph8.2 kmh 29.99 in1015.6 mb 0.00 in0.0 mm 0.00 in0.0 mm 0.00 in0.0 mm
01:31 AM 43.0°F6.1°C 27.9°F-2.3°C 55% 2.5 mph WSW4.0 kmh WSW 3.1 mph5.0 kmh 29.99 in1015.6 mb 0.00 in0.0 mm 0.00 in0.0 mm 0.00 in0.0 mm
01:29 AM 43.0°F6.1°C 27.9°F-2.3°C 55% 3.6 mph NW5.8 kmh NW 5.8 mph9.3 kmh 29.99 in1015.6 mb 0.00 in0.0 mm 0.00 in0.0 mm 0.00 in0.0 mm
01:27 AM 43.0°F6.1°C 27.9°F-2.3°C 55% 3.4 mph NW5.5 kmh NW 6.5 mph10.5 kmh 29.99 in1015.6 mb 0.00 in0.0 mm 0.00 in0.0 mm 0.00 in0.0 mm
01:25 AM 43.0°F6.1°C 27.9°F-2.3°C 55% 3.6 mph WNW5.8 kmh WNW 7.6 mph12.2 kmh 29.98 in1015.2 mb 0.00 in0.0 mm 0.00 in0.0 mm 0.00 in0.0 mm
01:23 AM 43.0°F6.1°C 28.4°F-2.0°C 56% 3.8 mph NNE6.1 kmh NNE 5.8 mph9.3 kmh 29.98 in1015.2 mb 0.00 in0.0 mm 0.00 in0.0 mm 0.00 in0.0 mm
01:20 AM 43.0°F6.1°C 28.4°F-2.0°C 56% 4.3 mph WNW6.9 kmh WNW 10.5 mph16.9 kmh 29.98 in1015.2 mb 0.00 in0.0 mm 0.00 in0.0 mm 0.00 in0.0 mm
01:18 AM 43.0°F6.1°C 27.9°F-2.3°C 55% 3.4 mph NW5.5 kmh NW 7.6 mph12.2 kmh 29.98 in1015.2 mb 0.00 in0.0 mm 0.00 in0.0 mm 0.00 in0.0 mm
01:16 AM 43.2°F6.2°C 28.0°F-2.2°C 55% 2.7 mph WSW4.3 kmh WSW 5.6 mph9.0 kmh 29.98 in1015.2 mb 0.00 in0.0 mm 0.00 in0.0 mm 0.00 in0.0 mm
01:14 AM 43.3°F6.3°C 27.9°F-2.3°C 54% 2.9 mph NNW4.7 kmh NNW 2.7 mph4.3 kmh 29.98 in1015.2 mb 0.00 in0.0 mm 0.00 in0.0 mm 0.00 in0.0 mm
01:12 AM 43.3°F6.3°C 27.9°F-2.3°C 54% 4.0 mph WNW6.4 kmh WNW 8.1 mph13.0 kmh 29.98 in1015.2 mb 0.00 in0.0 mm 0.00 in0.0 mm 0.00 in0.0 mm
01:10 AM 43.5°F6.4°C 28.0°F-2.2°C 54% 4.0 mph W6.4 kmh W 6.0 mph9.7 kmh 29.98 in1015.2 mb 0.00 in0.0 mm 0.00 in0.0 mm 0.00 in0.0 mm
01:07 AM 43.5°F6.4°C 28.0°F-2.2°C 54% 4.3 mph 6.9 kmh 7.2 mph11.6 kmh 29.98 in1015.2 mb 0.00 in0.0 mm 0.00 in0.0 mm 0.00 in0.0 mm
01:05 AM 43.5°F6.4°C 28.0°F-2.2°C 54% 3.8 mph NW6.1 kmh NW 5.4 mph8.7 kmh 29.97 in1014.9 mb 0.00 in0.0 mm 0.00 in0.0 mm 0.00 in0.0 mm
01:03 AM 43.7°F6.5°C 28.2°F-2.1°C 54% 4.5 mph WNW7.2 kmh WNW 5.1 mph8.2 kmh 29.97 in1014.9 mb 0.00 in0.0 mm 0.00 in0.0 mm 0.00 in0.0 mm
01:00 AM 43.7°F6.5°C 27.7°F-2.4°C 53% 5.1 mph 8.2 kmh 10.3 mph16.6 kmh 29.97 in1014.9 mb 0.00 in0.0 mm 0.00 in0.0 mm 0.00 in0.0 mm
12:58 AM 43.7°F6.5°C 27.7°F-2.4°C 53% 5.6 mph WSW9.0 kmh WSW 10.3 mph16.6 kmh 29.97 in1014.9 mb 0.00 in0.0 mm 0.00 in0.0 mm 0.00 in0.0 mm
12:56 AM 43.9°F6.6°C 27.9°F-2.3°C 53% 5.1 mph W8.2 kmh W 7.2 mph11.6 kmh 29.98 in1015.2 mb 0.00 in0.0 mm 0.00 in0.0 mm 0.00 in0.0 mm
12:54 AM 43.9°F6.6°C 27.9°F-2.3°C 53% 5.8 mph WSW9.3 kmh WSW 13.9 mph22.4 kmh 29.98 in1015.2 mb 0.00 in0.0 mm 0.00 in0.0 mm 0.00 in0.0 mm
12:52 AM 43.9°F6.6°C 27.9°F-2.3°C 53% 5.6 mph WNW9.0 kmh WNW 16.8 mph27.0 kmh 29.98 in1015.2 mb 0.00 in0.0 mm 0.00 in0.0 mm 0.00 in0.0 mm
12:49 AM 44.1°F6.7°C 27.5°F-2.5°C 52% 5.1 mph W8.2 kmh W 8.1 mph13.0 kmh 29.97 in1014.9 mb 0.00 in0.0 mm 0.00 in0.0 mm 0.00 in0.0 mm
12:47 AM 44.1°F6.7°C 27.5°F-2.5°C 52% 5.8 mph W9.3 kmh W 7.6 mph12.2 kmh 29.97 in1014.9 mb 0.00 in0.0 mm 0.00 in0.0 mm 0.00 in0.0 mm
12:45 AM 44.2°F6.8°C 27.3°F-2.6°C 51% 5.4 mph NNW8.7 kmh NNW 8.5 mph13.7 kmh 29.98 in1015.2 mb 0.00 in0.0 mm 0.00 in0.0 mm 0.00 in0.0 mm
12:43 AM 44.2°F6.8°C 27.3°F-2.6°C 51% 5.1 mph NW8.2 kmh NW 7.4 mph11.9 kmh 29.98 in1015.2 mb 0.00 in0.0 mm 0.00 in0.0 mm 0.00 in0.0 mm
12:41 AM 44.2°F6.8°C 27.3°F-2.6°C 51% 5.1 mph W8.2 kmh W 7.6 mph12.2 kmh 29.98 in1015.2 mb 0.00 in0.0 mm 0.00 in0.0 mm 0.00 in0.0 mm
12:38 AM 44.2°F6.8°C 27.3°F-2.6°C 51% 6.0 mph W9.7 kmh W 10.3 mph16.6 kmh 29.98 in1015.2 mb 0.00 in0.0 mm 0.00 in0.0 mm 0.00 in0.0 mm
12:36 AM 44.2°F6.8°C 27.3°F-2.6°C 51% 4.9 mph WNW7.9 kmh WNW 8.9 mph14.3 kmh 29.98 in1015.2 mb 0.00 in0.0 mm 0.00 in0.0 mm 0.00 in0.0 mm
12:34 AM 44.2°F6.8°C 27.3°F-2.6°C 51% 5.8 mph WNW9.3 kmh WNW 9.8 mph15.8 kmh 29.98 in1015.2 mb 0.00 in0.0 mm 0.00 in0.0 mm 0.00 in0.0 mm
12:32 AM 44.2°F6.8°C 26.8°F-2.9°C 50% 5.6 mph W9.0 kmh W 9.2 mph14.8 kmh 29.98 in1015.2 mb 0.00 in0.0 mm 0.00 in0.0 mm 0.00 in0.0 mm
12:30 AM 44.2°F6.8°C 27.3°F-2.6°C 51% 5.6 mph NNW9.0 kmh NNW 10.3 mph16.6 kmh 29.98 in1015.2 mb 0.00 in0.0 mm 0.00 in0.0 mm 0.00 in0.0 mm
12:27 AM 44.2°F6.8°C 27.3°F-2.6°C 51% 6.0 mph 9.7 kmh 8.3 mph13.4 kmh 29.98 in1015.2 mb 0.00 in0.0 mm 0.00 in0.0 mm 0.00 in0.0 mm
12:25 AM 44.2°F6.8°C 27.3°F-2.6°C 51% 5.6 mph W9.0 kmh W 8.9 mph14.3 kmh 29.98 in1015.2 mb 0.00 in0.0 mm 0.00 in0.0 mm 0.00 in0.0 mm
12:23 AM 44.2°F6.8°C 27.7°F-2.4°C 52% 5.6 mph S9.0 kmh S 9.8 mph15.8 kmh 29.98 in1015.2 mb 0.00 in0.0 mm 0.00 in0.0 mm 0.00 in0.0 mm
12:21 AM 44.2°F6.8°C 28.2°F-2.1°C 53% 5.4 mph SSW8.7 kmh SSW 11.9 mph19.2 kmh 29.98 in1015.2 mb 0.00 in0.0 mm 0.00 in0.0 mm 0.00 in0.0 mm
12:19 AM 44.2°F6.8°C 28.2°F-2.1°C 53% 4.9 mph NNW7.9 kmh NNW 6.9 mph11.1 kmh 29.97 in1014.9 mb 0.00 in0.0 mm 0.00 in0.0 mm 0.00 in0.0 mm
12:17 AM 44.2°F6.8°C 28.2°F-2.1°C 53% 4.9 mph W7.9 kmh W 11.0 mph17.7 kmh 29.97 in1014.9 mb 0.00 in0.0 mm 0.00 in0.0 mm 0.00 in0.0 mm
12:14 AM 44.2°F6.8°C 28.2°F-2.1°C 53% 4.7 mph NNW7.6 kmh NNW 6.9 mph11.1 kmh 29.97 in1014.9 mb 0.00 in0.0 mm 0.00 in0.0 mm 0.00 in0.0 mm
12:12 AM 44.2°F6.8°C 28.2°F-2.1°C 53% 4.7 mph WNW7.6 kmh WNW 6.9 mph11.1 kmh 29.97 in1014.9 mb 0.00 in0.0 mm 0.00 in0.0 mm 0.00 in0.0 mm
12:10 AM 44.4°F6.9°C 28.4°F-2.0°C 53% 4.9 mph W7.9 kmh W 6.5 mph10.5 kmh 29.97 in1014.9 mb 0.00 in0.0 mm 0.00 in0.0 mm 0.00 in0.0 mm
12:07 AM 44.4°F6.9°C 28.4°F-2.0°C 53% 6.3 mph W10.1 kmh W 10.5 mph16.9 kmh 29.97 in1014.9 mb 0.00 in0.0 mm 0.00 in0.0 mm 0.00 in0.0 mm
12:05 AM 44.2°F6.8°C 28.2°F-2.1°C 53% 6.5 mph W10.5 kmh W 9.6 mph15.4 kmh 29.96 in1014.6 mb 0.00 in0.0 mm 0.00 in0.0 mm 0.00 in0.0 mm
12:03 AM 44.2°F6.8°C 28.2°F-2.1°C 53% 6.3 mph WNW10.1 kmh WNW 13.4 mph21.6 kmh 29.96 in1014.6 mb 0.00 in0.0 mm 0.00 in0.0 mm 0.00 in0.0 mm
12:01 AM 44.2°F6.8°C 28.2°F-2.1°C 53% 6.3 mph WNW10.1 kmh WNW 11.6 mph18.7 kmh 29.97 in1014.9 mb 0.00 in0.0 mm 0.00 in0.0 mm 0.00 in0.0 mm